createdAt,value
2023-01-30T00:00:04.010Z,4.00
2023-01-30T00:02:31.049Z,4.00
2023-01-30T00:04:58.092Z,3.90
2023-01-30T00:07:25.047Z,3.80
2023-01-30T00:09:52.103Z,3.80
2023-01-30T00:12:19.081Z,3.80
2023-01-30T00:14:46.125Z,3.80
2023-01-30T00:17:13.086Z,3.80
2023-01-30T00:19:40.009Z,3.80
2023-01-30T00:22:06.978Z,3.80
2023-01-30T00:24:34.082Z,3.80
2023-01-30T00:27:01.079Z,3.80
2023-01-30T00:29:28.027Z,3.80
2023-01-30T00:31:55.070Z,3.80
2023-01-30T00:34:22.019Z,3.80
2023-01-30T00:36:56.033Z,3.70
2023-01-30T00:39:33.309Z,3.70
2023-01-30T00:42:18.936Z,3.80
2023-01-30T00:45:04.679Z,3.80
2023-01-30T00:47:31.912Z,3.70
2023-01-30T00:49:58.815Z,3.70
2023-01-30T00:52:25.808Z,3.70
2023-01-30T00:54:52.723Z,3.70
2023-01-30T00:57:19.639Z,3.80
2023-01-30T00:59:47.014Z,3.80
2023-01-30T01:02:14.857Z,3.80
2023-01-30T01:04:44.463Z,3.70
2023-01-30T01:07:12.949Z,3.70
2023-01-30T01:09:39.993Z,3.70
2023-01-30T01:12:07.351Z,3.70
2023-01-30T01:14:34.549Z,3.70
2023-01-30T01:17:01.893Z,3.70
2023-01-30T01:19:28.941Z,3.70
2023-01-30T01:21:55.886Z,3.70
2023-01-30T01:24:22.850Z,3.70
2023-01-30T01:26:49.841Z,3.70
2023-01-30T01:29:17.245Z,3.80
2023-01-30T01:31:45.031Z,3.80
2023-01-30T01:34:12.355Z,3.80
2023-01-30T01:36:55.017Z,3.80
2023-01-30T01:39:22.364Z,3.70
2023-01-30T01:41:49.278Z,3.70
2023-01-30T01:44:17.453Z,3.80
2023-01-30T01:46:58.668Z,3.90
2023-01-30T01:49:32.664Z,4.00
2023-01-30T01:52:08.401Z,4.00
2023-01-30T01:54:49.907Z,4.10
2023-01-30T01:57:38.121Z,4.20
2023-01-30T02:00:11.674Z,4.20
2023-01-30T02:02:44.943Z,4.20
2023-01-30T02:05:15.118Z,4.30
2023-01-30T02:07:53.090Z,4.30
2023-01-30T02:10:23.707Z,4.30
2023-01-30T02:12:52.498Z,4.40
2023-01-30T02:15:20.516Z,4.40
2023-01-30T02:17:47.663Z,4.40
2023-01-30T02:20:24.083Z,4.50
2023-01-30T02:22:50.958Z,4.30
2023-01-30T02:25:36.388Z,4.20
2023-01-30T02:28:41.159Z,4.10
2023-01-30T02:31:18.047Z,3.90
2023-01-30T02:34:09.525Z,3.70
2023-01-30T02:36:58.815Z,3.60
2023-01-30T02:40:01.473Z,3.50
2023-01-30T02:42:46.976Z,3.50
2023-01-30T02:45:40.038Z,3.50
2023-01-30T02:48:09.684Z,3.40
2023-01-30T02:50:51.229Z,3.20
2023-01-30T02:53:18.484Z,3.10
2023-01-30T02:55:45.423Z,3.00
2023-01-30T02:58:13.637Z,3.00
2023-01-30T03:01:04.924Z,3.10
2023-01-30T03:04:11.259Z,3.30
2023-01-30T03:06:44.227Z,3.40
2023-01-30T03:09:22.003Z,3.60
2023-01-30T03:11:57.229Z,3.70
2023-01-30T03:14:33.122Z,3.70
2023-01-30T03:17:01.287Z,4.00
2023-01-30T03:19:30.131Z,4.00
2023-01-30T03:21:57.091Z,4.00
2023-01-30T03:24:24.676Z,4.00
2023-01-30T03:27:17.997Z,4.00
2023-01-30T03:29:44.951Z,4.00
2023-01-30T03:32:11.871Z,4.10
2023-01-30T03:34:38.823Z,4.00
2023-01-30T03:37:06.313Z,4.00
2023-01-30T03:39:33.400Z,4.00
2023-01-30T03:42:00.354Z,4.10
2023-01-30T03:44:27.381Z,4.00
2023-01-30T03:46:54.272Z,4.00
2023-01-30T03:49:21.609Z,4.00
2023-01-30T03:51:48.756Z,4.00
2023-01-30T03:54:15.739Z,3.90
2023-01-30T03:56:42.744Z,4.10
2023-01-30T03:59:10.004Z,4.00
2023-01-30T04:01:36.972Z,4.00
2023-01-30T04:04:03.986Z,3.90
2023-01-30T04:06:30.943Z,4.00
2023-01-30T04:08:57.959Z,3.90
2023-01-30T04:11:24.921Z,3.90
2023-01-30T04:13:51.897Z,3.90
2023-01-30T04:16:24.938Z,3.90
2023-01-30T04:18:52.156Z,3.90
2023-01-30T04:21:19.597Z,3.90
2023-01-30T04:23:46.561Z,4.00
2023-01-30T04:26:14.075Z,3.90
2023-01-30T04:28:41.307Z,4.10
2023-01-30T04:31:08.760Z,4.10
2023-01-30T04:33:35.975Z,4.30
2023-01-30T04:36:04.882Z,4.40
2023-01-30T04:38:32.874Z,4.40
2023-01-30T04:41:00.496Z,4.30
2023-01-30T04:43:29.326Z,4.40
2023-01-30T04:45:57.016Z,4.40
2023-01-30T04:48:25.311Z,4.40
2023-01-30T04:50:55.051Z,4.40
2023-01-30T04:53:22.777Z,4.40
2023-01-30T04:55:50.128Z,4.40
2023-01-30T04:58:19.369Z,4.40
2023-01-30T05:00:47.162Z,4.40
2023-01-30T05:03:14.914Z,4.40
2023-01-30T05:05:42.269Z,4.40
2023-01-30T05:08:09.656Z,4.40
2023-01-30T05:10:36.602Z,4.40
2023-01-30T05:13:05.345Z,4.30
2023-01-30T05:15:33.299Z,4.40
2023-01-30T05:18:00.579Z,4.40
2023-01-30T05:20:27.568Z,4.40
2023-01-30T05:22:54.588Z,4.30
2023-01-30T05:25:21.612Z,4.30
2023-01-30T05:27:48.610Z,4.40
2023-01-30T05:30:15.695Z,4.40
2023-01-30T05:32:42.688Z,4.30
2023-01-30T05:35:09.887Z,4.30
2023-01-30T05:37:37.974Z,4.20
2023-01-30T05:40:06.051Z,4.30
2023-01-30T05:42:33.277Z,4.30
2023-01-30T05:45:00.294Z,4.30
2023-01-30T05:47:27.396Z,4.40
2023-01-30T05:49:54.293Z,4.40
2023-01-30T05:52:21.470Z,4.40
2023-01-30T05:54:48.449Z,4.40
2023-01-30T05:57:15.372Z,4.30
2023-01-30T05:59:42.372Z,4.30
2023-01-30T06:02:11.143Z,4.30
2023-01-30T06:04:38.856Z,4.20
2023-01-30T06:07:05.839Z,4.30
2023-01-30T06:09:32.814Z,4.30
2023-01-30T06:11:59.794Z,4.40
2023-01-30T06:14:26.723Z,4.30
2023-01-30T06:16:53.695Z,4.40
2023-01-30T06:19:20.691Z,4.40
2023-01-30T06:21:47.626Z,4.40
2023-01-30T06:24:14.649Z,4.40
2023-01-30T06:26:41.590Z,4.40
2023-01-30T06:29:08.555Z,4.50
2023-01-30T06:31:35.981Z,4.70
2023-01-30T06:34:03.077Z,4.70
2023-01-30T06:36:30.173Z,4.80
2023-01-30T06:38:57.115Z,4.80
2023-01-30T06:41:24.078Z,4.70
2023-01-30T06:43:51.101Z,4.70
2023-01-30T06:46:18.064Z,4.70
2023-01-30T06:48:45.078Z,4.60
2023-01-30T06:51:11.986Z,4.60
2023-01-30T06:53:38.953Z,4.50
2023-01-30T06:56:06.154Z,4.50
2023-01-30T06:58:33.158Z,4.60
2023-01-30T07:01:00.194Z,4.60
2023-01-30T07:03:27.099Z,4.60
2023-01-30T07:05:54.270Z,4.60
2023-01-30T07:08:23.256Z,4.60
2023-01-30T07:10:51.397Z,4.70
2023-01-30T07:13:18.433Z,4.70
2023-01-30T07:15:46.517Z,4.60
2023-01-30T07:18:14.074Z,4.70
2023-01-30T07:20:42.434Z,4.50
2023-01-30T07:23:09.498Z,4.50
2023-01-30T07:25:36.627Z,4.50
2023-01-30T07:28:03.940Z,4.50
2023-01-30T07:30:33.256Z,4.50
2023-01-30T07:33:00.767Z,4.40
2023-01-30T07:35:30.183Z,4.30
2023-01-30T07:37:57.987Z,4.30
2023-01-30T07:40:25.656Z,4.30
2023-01-30T07:43:04.850Z,4.30
2023-01-30T07:45:48.711Z,4.20
2023-01-30T07:48:18.544Z,4.10
2023-01-30T07:50:50.594Z,4.10
2023-01-30T07:53:21.155Z,4.00
2023-01-30T07:55:51.440Z,4.10
2023-01-30T07:58:18.647Z,4.10
2023-01-30T08:00:46.118Z,4.10
2023-01-30T08:03:17.344Z,4.10
2023-01-30T08:05:48.716Z,4.10
2023-01-30T08:08:16.245Z,4.10
2023-01-30T08:10:49.242Z,4.10
2023-01-30T08:13:25.501Z,4.10
2023-01-30T08:15:53.787Z,4.00
2023-01-30T08:18:20.966Z,4.00
2023-01-30T08:20:48.205Z,4.00
2023-01-30T08:23:15.621Z,4.00
2023-01-30T08:25:43.004Z,4.00
2023-01-30T08:28:10.209Z,4.00
2023-01-30T08:30:37.420Z,4.10
2023-01-30T08:33:04.527Z,4.00
2023-01-30T08:35:31.607Z,4.10
2023-01-30T08:37:58.945Z,4.00
2023-01-30T08:40:26.171Z,4.10
2023-01-30T08:42:53.299Z,4.20
2023-01-30T08:45:20.445Z,4.20
2023-01-30T08:47:47.409Z,4.30
2023-01-30T08:50:14.434Z,4.30
2023-01-30T08:52:41.402Z,4.50
2023-01-30T08:55:09.498Z,4.60
2023-01-30T08:57:36.631Z,4.60
2023-01-30T09:00:04.694Z,4.70
2023-01-30T09:02:31.679Z,4.70
2023-01-30T09:04:58.884Z,4.70
2023-01-30T09:07:27.788Z,4.70
2023-01-30T09:09:55.333Z,4.70
2023-01-30T09:12:22.437Z,4.80
2023-01-30T09:14:49.371Z,5.00
2023-01-30T09:17:16.335Z,5.10
2023-01-30T09:19:43.275Z,5.30
2023-01-30T09:22:10.312Z,5.30
2023-01-30T09:24:37.387Z,5.50
2023-01-30T09:27:04.735Z,5.60
2023-01-30T09:29:31.885Z,5.70
2023-01-30T09:31:59.224Z,5.70
2023-01-30T09:34:28.787Z,5.80
2023-01-30T09:37:05.010Z,5.80
2023-01-30T09:39:32.331Z,5.70
2023-01-30T09:42:07.738Z,5.90
2023-01-30T09:44:53.137Z,6.10
2023-01-30T09:47:57.219Z,6.10
2023-01-30T09:50:40.411Z,6.10
2023-01-30T09:53:25.916Z,6.20
2023-01-30T09:55:53.291Z,6.30
2023-01-30T09:58:22.887Z,6.40
2023-01-30T10:00:55.018Z,6.60
2023-01-30T10:03:29.403Z,6.60
2023-01-30T10:06:01.587Z,6.60
2023-01-30T10:08:31.491Z,6.70
2023-01-30T10:11:12.063Z,7.00
2023-01-30T10:13:41.824Z,7.10
2023-01-30T10:16:25.218Z,7.10
2023-01-30T10:19:04.735Z,7.20
2023-01-30T10:21:37.252Z,7.30
2023-01-30T10:24:13.331Z,7.30
2023-01-30T10:26:42.744Z,7.40
2023-01-30T10:29:15.247Z,7.50
2023-01-30T10:31:58.864Z,7.70
2023-01-30T10:34:34.718Z,7.70
2023-01-30T10:37:36.504Z,7.70
2023-01-30T10:40:38.866Z,7.90
2023-01-30T10:43:17.693Z,8.00
2023-01-30T10:45:59.687Z,8.20
2023-01-30T10:48:43.194Z,8.10
2023-01-30T10:51:18.281Z,7.90
2023-01-30T10:54:03.387Z,8.10
2023-01-30T10:56:41.139Z,8.30
2023-01-30T10:59:26.946Z,8.50
2023-01-30T11:02:24.340Z,8.40
2023-01-30T11:05:10.597Z,8.40
2023-01-30T11:07:37.786Z,8.60
2023-01-30T11:10:16.955Z,8.60
2023-01-30T11:12:44.127Z,8.80
2023-01-30T11:15:12.064Z,8.80
2023-01-30T11:17:45.684Z,9.00
2023-01-30T11:20:19.780Z,9.00
2023-01-30T11:23:09.367Z,9.20
2023-01-30T11:25:52.839Z,9.30
2023-01-30T11:28:27.308Z,9.20
2023-01-30T11:30:58.905Z,9.20
2023-01-30T11:33:44.342Z,9.50
2023-01-30T11:36:29.705Z,9.50
2023-01-30T11:39:23.507Z,9.50
2023-01-30T11:42:02.223Z,9.90
2023-01-30T11:44:33.324Z,9.70
2023-01-30T11:47:29.798Z,9.80
2023-01-30T11:50:19.904Z,9.80
2023-01-30T11:52:50.191Z,10.00
2023-01-30T11:55:19.880Z,9.80
2023-01-30T11:57:58.832Z,9.90
2023-01-30T12:00:38.470Z,9.90
2023-01-30T12:03:10.829Z,9.60
2023-01-30T12:05:42.943Z,9.50
2023-01-30T12:08:24.708Z,9.40
2023-01-30T12:11:01.718Z,9.00
2023-01-30T12:13:39.393Z,8.80
2023-01-30T12:16:34.529Z,8.90
2023-01-30T12:19:08.060Z,8.40
2023-01-30T12:21:39.339Z,8.40
2023-01-30T12:24:22.891Z,8.10
2023-01-30T12:27:06.241Z,8.00
2023-01-30T12:29:59.410Z,7.80
2023-01-30T12:32:30.430Z,7.60
2023-01-30T12:34:57.464Z,7.50
2023-01-30T12:37:33.744Z,7.50
2023-01-30T12:40:22.378Z,7.50
2023-01-30T12:42:52.189Z,7.40
2023-01-30T12:45:29.705Z,7.40
2023-01-30T12:48:30.580Z,7.40
2023-01-30T12:51:23.770Z,7.30
2023-01-30T12:54:20.342Z,7.20
2023-01-30T12:56:51.011Z,7.20
2023-01-30T12:59:20.806Z,7.30
2023-01-30T13:02:08.340Z,7.20
2023-01-30T13:05:04.105Z,7.20
2023-01-30T13:07:44.704Z,7.30
2023-01-30T13:10:21.180Z,7.10
2023-01-30T13:13:09.993Z,7.20
2023-01-30T13:15:58.493Z,7.70
2023-01-30T13:18:31.373Z,8.30
2023-01-30T13:21:25.711Z,8.10
2023-01-30T13:24:07.450Z,8.40
2023-01-30T13:26:37.346Z,8.80
2023-01-30T13:29:31.221Z,9.20
2023-01-30T13:32:02.656Z,9.80
2023-01-30T13:34:44.490Z,9.90
2023-01-30T13:37:14.091Z,10.30
2023-01-30T13:39:47.809Z,10.60
2023-01-30T13:42:40.984Z,10.70
2023-01-30T13:45:16.705Z,10.60
2023-01-30T13:48:03.798Z,10.40
2023-01-30T13:50:58.195Z,9.70
2023-01-30T13:53:54.231Z,9.30
2023-01-30T13:56:47.930Z,8.80
2023-01-30T13:59:36.248Z,8.60
2023-01-30T14:02:10.342Z,8.30
2023-01-30T14:04:40.362Z,8.40
2023-01-30T14:07:13.088Z,8.30
2023-01-30T14:09:51.025Z,8.40
2023-01-30T14:12:24.751Z,8.40
2023-01-30T14:15:19.866Z,8.60
2023-01-30T14:18:05.410Z,8.70
2023-01-30T14:21:03.253Z,8.80
2023-01-30T14:23:34.003Z,8.80
2023-01-30T14:26:01.688Z,8.50
2023-01-30T14:28:31.559Z,8.30
2023-01-30T14:31:03.307Z,8.40
2023-01-30T14:33:48.970Z,8.40
2023-01-30T14:36:15.882Z,8.40
2023-01-30T14:38:45.422Z,8.50
2023-01-30T14:41:16.571Z,9.10
2023-01-30T14:43:43.648Z,9.30
2023-01-30T14:46:19.671Z,9.70
2023-01-30T14:49:01.079Z,10.20
2023-01-30T14:51:45.969Z,10.40
2023-01-30T14:54:13.729Z,10.60
2023-01-30T14:57:06.130Z,11.40
2023-01-30T14:59:33.229Z,11.00
2023-01-30T15:02:14.132Z,11.00
2023-01-30T15:05:01.877Z,10.60
2023-01-30T15:07:47.958Z,10.90
2023-01-30T15:10:53.482Z,10.60
2023-01-30T15:13:40.087Z,10.40
2023-01-30T15:16:25.897Z,10.50
2023-01-30T15:19:29.948Z,10.60
2023-01-30T15:22:15.579Z,9.60
2023-01-30T15:24:53.191Z,9.70
2023-01-30T15:27:34.397Z,9.50
2023-01-30T15:30:21.871Z,9.20
2023-01-30T15:32:49.162Z,9.20
2023-01-30T15:35:19.111Z,9.20
2023-01-30T15:37:46.129Z,9.20
2023-01-30T15:40:16.059Z,8.90
2023-01-30T15:43:25.242Z,8.50
2023-01-30T15:46:08.499Z,8.20
2023-01-30T15:49:00.544Z,7.70
2023-01-30T15:51:29.593Z,7.80
2023-01-30T15:53:58.811Z,7.60
2023-01-30T15:56:29.904Z,7.30
2023-01-30T15:58:59.811Z,7.30
2023-01-30T16:01:27.277Z,7.20
2023-01-30T16:03:55.065Z,7.10
2023-01-30T16:06:30.939Z,7.00
2023-01-30T16:09:02.279Z,6.90
2023-01-30T16:11:42.379Z,6.70
2023-01-30T16:14:17.534Z,6.50
2023-01-30T16:17:06.521Z,6.50
2023-01-30T16:19:37.501Z,6.50
2023-01-30T16:22:18.078Z,6.60
2023-01-30T16:24:52.397Z,6.60
2023-01-30T16:27:40.992Z,6.80
2023-01-30T16:30:09.353Z,7.00
2023-01-30T16:32:36.951Z,7.10
2023-01-30T16:35:27.480Z,7.10
2023-01-30T16:37:57.362Z,7.20
2023-01-30T16:40:34.176Z,7.30
2023-01-30T16:43:21.719Z,7.40
2023-01-30T16:46:33.385Z,7.30
2023-01-30T16:49:04.981Z,7.40
2023-01-30T16:51:32.202Z,7.40
2023-01-30T16:54:03.421Z,7.40
2023-01-30T16:56:34.450Z,7.40
2023-01-30T16:59:02.335Z,7.40
2023-01-30T17:01:41.576Z,7.50
2023-01-30T17:04:22.132Z,7.40
2023-01-30T17:06:53.438Z,7.30
2023-01-30T17:09:43.060Z,7.20
2023-01-30T17:12:30.104Z,7.10
2023-01-30T17:15:12.174Z,7.10
2023-01-30T17:17:40.486Z,7.10
2023-01-30T17:20:09.095Z,7.10
2023-01-30T17:22:39.837Z,7.20
2023-01-30T17:25:18.588Z,7.20
2023-01-30T17:27:45.502Z,7.10
2023-01-30T17:30:17.213Z,7.20
2023-01-30T17:32:44.345Z,7.00
2023-01-30T17:35:14.259Z,7.00
2023-01-30T17:37:42.530Z,7.10
2023-01-30T17:40:19.229Z,7.00
2023-01-30T17:42:49.248Z,7.00
2023-01-30T17:45:16.321Z,7.00
2023-01-30T17:47:43.235Z,6.90
2023-01-30T17:50:14.189Z,6.90
2023-01-30T17:52:41.952Z,6.80
2023-01-30T17:55:13.157Z,6.80
2023-01-30T17:57:43.921Z,6.80
2023-01-30T18:00:16.926Z,6.80
2023-01-30T18:02:44.611Z,6.80
2023-01-30T18:05:11.721Z,6.80
2023-01-30T18:07:40.133Z,6.70
2023-01-30T18:10:12.226Z,6.70
2023-01-30T18:12:39.146Z,6.70
2023-01-30T18:15:06.671Z,6.70
2023-01-30T18:17:46.806Z,6.70
2023-01-30T18:20:16.771Z,6.60
2023-01-30T18:22:44.054Z,6.60
2023-01-30T18:25:13.534Z,6.60
2023-01-30T18:27:43.947Z,6.70
2023-01-30T18:30:17.419Z,6.80
2023-01-30T18:32:52.516Z,6.90
2023-01-30T18:35:21.499Z,6.80
2023-01-30T18:37:48.524Z,6.70
2023-01-30T18:40:15.603Z,6.70
2023-01-30T18:42:42.605Z,6.70
2023-01-30T18:45:09.937Z,6.60
2023-01-30T18:47:36.864Z,6.70
2023-01-30T18:50:04.552Z,6.70
2023-01-30T18:52:31.616Z,6.50
2023-01-30T18:54:58.643Z,6.40
2023-01-30T18:57:25.819Z,6.60
2023-01-30T18:59:53.001Z,6.60
2023-01-30T19:02:20.227Z,6.50
2023-01-30T19:04:47.417Z,6.40
2023-01-30T19:07:14.582Z,6.30
2023-01-30T19:09:41.797Z,6.30
2023-01-30T19:12:28.301Z,6.30
2023-01-30T19:14:55.326Z,6.40
2023-01-30T19:17:22.354Z,6.40
2023-01-30T19:19:49.750Z,6.50
2023-01-30T19:22:17.976Z,6.40
2023-01-30T19:24:45.204Z,6.40
2023-01-30T19:27:13.986Z,6.40
2023-01-30T19:29:44.318Z,6.40
2023-01-30T19:32:11.320Z,6.40
2023-01-30T19:34:38.620Z,6.40
2023-01-30T19:37:06.026Z,6.30
2023-01-30T19:39:32.939Z,6.30
2023-01-30T19:41:59.954Z,6.30
2023-01-30T19:44:26.929Z,6.30
2023-01-30T19:46:53.968Z,6.40
2023-01-30T19:49:20.957Z,6.40
2023-01-30T19:51:47.926Z,6.30
2023-01-30T19:54:14.904Z,6.30
2023-01-30T19:56:42.619Z,6.30
2023-01-30T19:59:13.131Z,6.20
2023-01-30T20:01:40.710Z,6.30
2023-01-30T20:04:07.888Z,6.20
2023-01-30T20:06:36.206Z,6.20
2023-01-30T20:09:11.021Z,6.20
2023-01-30T20:11:40.344Z,6.20
2023-01-30T20:14:07.709Z,6.10
2023-01-30T20:16:36.111Z,6.10
2023-01-30T20:19:07.503Z,6.10
2023-01-30T20:21:35.031Z,6.10
2023-01-30T20:24:02.185Z,6.00
2023-01-30T20:26:37.476Z,6.00
2023-01-30T20:29:05.596Z,6.10
2023-01-30T20:31:34.712Z,6.10
2023-01-30T20:34:03.171Z,6.10
2023-01-30T20:36:30.180Z,6.10
2023-01-30T20:39:04.427Z,6.10
2023-01-30T20:41:33.514Z,6.20
2023-01-30T20:44:00.771Z,6.10
2023-01-30T20:46:30.687Z,6.10
2023-01-30T20:49:01.261Z,6.10
2023-01-30T20:51:32.053Z,6.10
2023-01-30T20:54:01.944Z,6.00
2023-01-30T20:56:43.127Z,6.10
2023-01-30T20:59:12.158Z,6.10
2023-01-30T21:01:41.456Z,6.10
2023-01-30T21:04:11.476Z,6.00
2023-01-30T21:06:43.504Z,6.10
2023-01-30T21:09:17.189Z,6.10
2023-01-30T21:11:44.899Z,6.10
2023-01-30T21:14:12.189Z,6.00
2023-01-30T21:16:39.893Z,6.00
2023-01-30T21:19:09.819Z,6.00
2023-01-30T21:21:42.761Z,5.90
2023-01-30T21:24:13.445Z,5.90
2023-01-30T21:26:44.685Z,5.90
2023-01-30T21:29:13.652Z,6.00
2023-01-30T21:31:41.700Z,6.00
2023-01-30T21:34:10.063Z,6.00
2023-01-30T21:36:37.193Z,6.10
2023-01-30T21:39:23.131Z,6.00
2023-01-30T21:42:08.525Z,5.90
2023-01-30T21:44:40.941Z,5.90
2023-01-30T21:47:08.015Z,6.00
2023-01-30T21:49:36.801Z,6.10
2023-01-30T21:52:04.215Z,6.10
2023-01-30T21:54:31.167Z,6.20
2023-01-30T21:56:58.190Z,6.30
2023-01-30T21:59:25.123Z,6.40
2023-01-30T22:01:52.128Z,6.40
2023-01-30T22:04:19.653Z,6.40
2023-01-30T22:06:46.576Z,6.40
2023-01-30T22:09:15.396Z,6.40
2023-01-30T22:11:42.540Z,6.40
2023-01-30T22:14:14.220Z,6.40
2023-01-30T22:16:41.717Z,6.30
2023-01-30T22:19:09.006Z,6.30
2023-01-30T22:21:39.905Z,6.30
2023-01-30T22:24:08.679Z,6.30
2023-01-30T22:26:36.678Z,6.20
2023-01-30T22:29:05.484Z,6.30
2023-01-30T22:31:34.880Z,6.20
2023-01-30T22:34:03.643Z,6.20
2023-01-30T22:36:32.535Z,6.10
2023-01-30T22:38:59.552Z,6.00
2023-01-30T22:41:28.465Z,5.90
2023-01-30T22:43:59.947Z,5.80
2023-01-30T22:46:33.043Z,5.80
2023-01-30T22:49:01.257Z,5.70
2023-01-30T22:51:30.968Z,5.70
2023-01-30T22:54:00.500Z,5.70
2023-01-30T22:56:39.832Z,5.70
2023-01-30T22:59:07.532Z,5.70
2023-01-30T23:01:39.402Z,5.80
2023-01-30T23:04:12.703Z,5.80
2023-01-30T23:06:40.583Z,5.80
2023-01-30T23:09:09.825Z,5.90
2023-01-30T23:11:40.395Z,6.00
2023-01-30T23:14:10.893Z,6.00
2023-01-30T23:16:40.356Z,6.10
2023-01-30T23:19:08.684Z,6.10
2023-01-30T23:26:52.245Z,6.30
2023-01-30T23:29:20.328Z,6.30
2023-01-30T23:31:48.330Z,6.30
2023-01-30T23:34:18.548Z,6.30
2023-01-30T23:39:21.103Z,6.30
2023-01-30T23:41:47.997Z,6.30
2023-01-30T23:44:14.889Z,6.20
2023-01-30T23:46:42.639Z,6.20
2023-01-30T23:49:14.754Z,6.10
2023-01-30T23:51:44.334Z,6.10
2023-01-30T23:54:12.812Z,6.10
2023-01-30T23:57:05.644Z,6.00
2023-01-30T23:59:32.681Z,6.00
